15:21
Airports
Links
Donate
Help keep this website running!
PayPal
Bitcoin
METAR
OBBI 191500Z 10008KT CAVOK 19/16 Q1016 NOSIG
Current Weather Conditions at OBBI
VFR 15:00:00 19-01-18
Altimeter:30.00 hg
Temp:19.0°c 66°f
Dew point:16.0°c 61°f
Wind:8 knots, 9.2 mph, 4 m/s, from 100°
Visibility:6.21 statute miles
(CAVOK)
No significant weather changes expected within 2 hours.
Past METAR reports
VFR 14:30:00 19-01-18
Altimeter:29.97 hg
Temp:19.0°c 66°f
Dew point:16.0°c 61°f
Wind:8 knots, 9.2 mph, 4 m/s, from 90°
Visibility:6.21 statute miles
(CAVOK)
No significant weather changes expected within 2 hours.
OBBI 191430Z 09008KT CAVOK 19/16 Q1015 NOSIG
VFR 14:00:00 19-01-18
Altimeter:29.97 hg
Temp:20.0°c 68°f
Dew point:15.0°c 59°f
Wind:8 knots, 9.2 mph, 4 m/s, from 100°
Visibility:6.21 statute miles
(CAVOK)
No significant weather changes expected within 2 hours.
OBBI 191400Z 10008KT CAVOK 20/15 Q1015 NOSIG
VFR 13:30:00 19-01-18
Altimeter:29.97 hg
Temp:20.0°c 68°f
Dew point:12.0°c 54°f
Wind:9 knots, 10.4 mph, 5 m/s, from 100°
Visibility:6.21 statute miles
(CAVOK)
No significant weather changes expected within 2 hours.
OBBI 191330Z 10009KT CAVOK 20/12 Q1015 NOSIG
VFR 13:00:00 19-01-18
Altimeter:29.97 hg
Temp:21.0°c 70°f
Dew point:13.0°c 55°f
Wind:10 knots, 11.5 mph, 5 m/s, from 100°
Visibility:6.21 statute miles
(CAVOK)
No significant weather changes expected within 2 hours.
OBBI 191300Z 10010KT CAVOK 21/13 Q1015 NOSIG
VFR 12:30:00 19-01-18
Altimeter:29.97 hg
Temp:23.0°c 73°f
Dew point:6.0°c 43°f
Wind:6 knots, 6.9 mph, 3 m/s, from 170°
Visibility:6.21 statute miles
(CAVOK)
No significant weather changes expected within 2 hours.
OBBI 191230Z 17006KT 140V200 CAVOK 23/06 Q1015 NOSIG
VFR 12:00:00 19-01-18
Altimeter:29.97 hg
Temp:23.0°c 73°f
Dew point:7.0°c 45°f
Wind:6 knots, 6.9 mph, 3 m/s, from 180°
Visibility:6.21 statute miles
(CAVOK)
No significant weather changes expected within 2 hours.
OBBI 191200Z 18006KT 130V200 CAVOK 23/07 Q1015 NOSIG
TAF
TAF OBBI 191100Z 1912/2018 14014KT CAVOK BECMG 2008/2010 32017G27KT 5000 SCT030 PROB30 TEMPO 2008/2014 2000 DU
Forecast at OBBI
12:00 19-01-18 to 08:00 20-01-18
NSW
Wind:14 Knots from 140°
Visibility:6.21 statute miles
NSC
TEMPO 08:00 20-01-18 to 14:00 20-01-18
30% DU
Visibility:1.24 statute miles
BECMG 08:00 20-01-18 to 18:00 20-01-18
NSW
Wind:17 Knots from 320°
Visibility:3.11 statute miles
3000SCT Scattered